Terminal Aerodrome Forecast
Issued by NWS

Home | Current Version | Previous Version | Text Only | Print | Product List | Glossary On
Versions: 1 2 3 4 5 6 7 8 9 10 11 12 13 14 15 16
777
FTUS41 KAKQ 261749 RRA
TAFPHF
TAF
KPHF 261749Z 2618/2718 13006KT P6SM SCT060
     FM270200 18004KT P6SM SKC
     FM271100 32004KT P6SM SCT120
     FM271300 01006KT P6SM BKN120=

USA.gov is the U.S. government's official web portal to all federal, state and local government web resources and services.